Terminal Aerodrome Forecast
Issued by NWS

Current Version | Previous Version | Graphics & Text | Print | Product List | Glossary Off
Versions: 1 2 3 4 5 6 7 8 9 10 11 12 13 14 15 16 17 18 19 20 21 22 23 24 25 26

000
FTUS41 KILN 300900 AAA
TAFLUK
TAF AMD
KLUK 300923Z 3009/3106 28007KT P6SM VCSH SCT018 OVC045
     FM301030 32014G20KT P6SM VCSH SCT018 OVC050
      TEMPO 3011/3013 5SM -SN BR BKN018
     FM301600 34010KT P6SM OVC028
     FM310200 00000KT P6SM SKC=

USA.gov is the U.S. government's official web portal to all federal, state and local government web resources and services.